sensor_id;sensor_type;location;lat;lon;timestamp;P1;durP1;ratioP1;P2;durP2;ratioP2
17598;SDS011;8918;52.092;5.232;2023-11-19T00:02:24;16.37;;;6.40;;
17598;SDS011;8918;52.092;5.232;2023-11-19T00:04:50;18.13;;;6.60;;
17598;SDS011;8918;52.092;5.232;2023-11-19T00:07:15;20.40;;;6.40;;
17598;SDS011;8918;52.092;5.232;2023-11-19T00:09:41;18.90;;;6.17;;
17598;SDS011;8918;52.092;5.232;2023-11-19T00:12:08;16.83;;;5.90;;
17598;SDS011;8918;52.092;5.232;2023-11-19T00:14:34;18.03;;;5.70;;
17598;SDS011;8918;52.092;5.232;2023-11-19T00:16:59;20.27;;;6.70;;
17598;SDS011;8918;52.092;5.232;2023-11-19T00:19:25;16.27;;;5.87;;
17598;SDS011;8918;52.092;5.232;2023-11-19T00:21:51;21.60;;;6.47;;
17598;SDS011;8918;52.092;5.232;2023-11-19T00:24:17;26.30;;;5.80;;
17598;SDS011;8918;52.092;5.232;2023-11-19T00:26:43;16.60;;;5.03;;
17598;SDS011;8918;52.092;5.232;2023-11-19T00:29:08;23.40;;;5.53;;
17598;SDS011;8918;52.092;5.232;2023-11-19T00:31:34;22.73;;;5.30;;
17598;SDS011;8918;52.092;5.232;2023-11-19T00:34:00;23.50;;;6.03;;
17598;SDS011;8918;52.092;5.232;2023-11-19T00:36:26;21.03;;;5.20;;
17598;SDS011;8918;52.092;5.232;2023-11-19T00:38:53;21.47;;;5.57;;
17598;SDS011;8918;52.092;5.232;2023-11-19T00:41:18;31.10;;;5.23;;
17598;SDS011;8918;52.092;5.232;2023-11-19T00:43:44;26.90;;;5.87;;
17598;SDS011;8918;52.092;5.232;2023-11-19T00:46:10;23.17;;;5.30;;
17598;SDS011;8918;52.092;5.232;2023-11-19T00:48:37;22.53;;;5.00;;
17598;SDS011;8918;52.092;5.232;2023-11-19T00:51:02;22.00;;;5.23;;
17598;SDS011;8918;52.092;5.232;2023-11-19T00:53:31;26.30;;;4.90;;
17598;SDS011;8918;52.092;5.232;2023-11-19T00:55:58;21.43;;;5.00;;
17598;SDS011;8918;52.092;5.232;2023-11-19T00:58:24;26.23;;;5.43;;
17598;SDS011;8918;52.092;5.232;2023-11-19T01:00:50;24.23;;;5.07;;
17598;SDS011;8918;52.092;5.232;2023-11-19T01:03:15;22.37;;;4.97;;
17598;SDS011;8918;52.092;5.232;2023-11-19T01:05:41;22.20;;;4.97;;
17598;SDS011;8918;52.092;5.232;2023-11-19T01:08:07;29.67;;;5.30;;
17598;SDS011;8918;52.092;5.232;2023-11-19T01:10:33;30.50;;;5.80;;
17598;SDS011;8918;52.092;5.232;2023-11-19T01:12:59;24.00;;;4.90;;
17598;SDS011;8918;52.092;5.232;2023-11-19T01:15:24;28.73;;;5.90;;
17598;SDS011;8918;52.092;5.232;2023-11-19T01:17:51;30.13;;;5.53;;
17598;SDS011;8918;52.092;5.232;2023-11-19T01:20:17;24.83;;;5.10;;
17598;SDS011;8918;52.092;5.232;2023-11-19T01:22:42;27.13;;;5.03;;
17598;SDS011;8918;52.092;5.232;2023-11-19T01:25:08;25.77;;;5.57;;
17598;SDS011;8918;52.092;5.232;2023-11-19T01:27:34;27.13;;;5.63;;
17598;SDS011;8918;52.092;5.232;2023-11-19T01:30:00;24.63;;;5.50;;
17598;SDS011;8918;52.092;5.232;2023-11-19T01:32:28;31.90;;;6.27;;
17598;SDS011;8918;52.092;5.232;2023-11-19T01:34:54;30.02;;;5.80;;
17598;SDS011;8918;52.092;5.232;2023-11-19T01:37:19;36.63;;;6.10;;
17598;SDS011;8918;52.092;5.232;2023-11-19T01:39:45;27.00;;;5.73;;
17598;SDS011;8918;52.092;5.232;2023-11-19T01:42:10;34.83;;;5.93;;
17598;SDS011;8918;52.092;5.232;2023-11-19T01:44:37;31.20;;;6.67;;
17598;SDS011;8918;52.092;5.232;2023-11-19T01:47:03;29.13;;;6.13;;
17598;SDS011;8918;52.092;5.232;2023-11-19T01:49:29;31.30;;;6.17;;
17598;SDS011;8918;52.092;5.232;2023-11-19T01:51:57;26.40;;;6.23;;
17598;SDS011;8918;52.092;5.232;2023-11-19T01:54:23;36.10;;;6.40;;
17598;SDS011;8918;52.092;5.232;2023-11-19T01:56:49;31.57;;;6.20;;
17598;SDS011;8918;52.092;5.232;2023-11-19T01:59:15;37.00;;;6.57;;
17598;SDS011;8918;52.092;5.232;2023-11-19T02:01:41;30.67;;;5.77;;
17598;SDS011;8918;52.092;5.232;2023-11-19T02:04:07;33.33;;;5.93;;
17598;SDS011;8918;52.092;5.232;2023-11-19T02:06:34;34.13;;;6.67;;
17598;SDS011;8918;52.092;5.232;2023-11-19T02:09:02;34.83;;;6.20;;
17598;SDS011;8918;52.092;5.232;2023-11-19T02:11:32;38.30;;;6.83;;
17598;SDS011;8918;52.092;5.232;2023-11-19T02:13:59;48.30;;;6.70;;
17598;SDS011;8918;52.092;5.232;2023-11-19T02:16:25;33.23;;;6.23;;
17598;SDS011;8918;52.092;5.232;2023-11-19T02:18:50;35.50;;;6.60;;
17598;SDS011;8918;52.092;5.232;2023-11-19T02:21:16;35.77;;;6.20;;
17598;SDS011;8918;52.092;5.232;2023-11-19T02:23:43;30.33;;;6.77;;
17598;SDS011;8918;52.092;5.232;2023-11-19T02:26:18;32.63;;;6.00;;
17598;SDS011;8918;52.092;5.232;2023-11-19T02:29:12;38.77;;;6.97;;
17598;SDS011;8918;52.092;5.232;2023-11-19T02:31:38;37.20;;;6.70;;
17598;SDS011;8918;52.092;5.232;2023-11-19T02:34:04;33.27;;;6.37;;
17598;SDS011;8918;52.092;5.232;2023-11-19T02:36:30;36.90;;;7.30;;
17598;SDS011;8918;52.092;5.232;2023-11-19T02:38:57;37.70;;;7.03;;
17598;SDS011;8918;52.092;5.232;2023-11-19T02:41:23;41.70;;;7.10;;
17598;SDS011;8918;52.092;5.232;2023-11-19T02:43:49;38.07;;;7.07;;
17598;SDS011;8918;52.092;5.232;2023-11-19T02:46:14;40.57;;;7.63;;
17598;SDS011;8918;52.092;5.232;2023-11-19T02:48:42;39.03;;;7.03;;
17598;SDS011;8918;52.092;5.232;2023-11-19T02:51:09;38.60;;;7.67;;
17598;SDS011;8918;52.092;5.232;2023-11-19T02:53:35;39.27;;;7.23;;
17598;SDS011;8918;52.092;5.232;2023-11-19T02:56:02;41.07;;;6.73;;
17598;SDS011;8918;52.092;5.232;2023-11-19T02:58:36;37.80;;;6.77;;
17598;SDS011;8918;52.092;5.232;2023-11-19T03:01:03;35.37;;;6.87;;
17598;SDS011;8918;52.092;5.232;2023-11-19T03:03:37;37.37;;;6.27;;
17598;SDS011;8918;52.092;5.232;2023-11-19T03:06:05;38.37;;;7.00;;
17598;SDS011;8918;52.092;5.232;2023-11-19T03:08:31;35.57;;;6.10;;
17598;SDS011;8918;52.092;5.232;2023-11-19T03:10:58;38.17;;;6.93;;
17598;SDS011;8918;52.092;5.232;2023-11-19T03:13:24;40.60;;;7.23;;
17598;SDS011;8918;52.092;5.232;2023-11-19T03:15:50;35.40;;;7.17;;
17598;SDS011;8918;52.092;5.232;2023-11-19T03:18:16;44.40;;;7.33;;
17598;SDS011;8918;52.092;5.232;2023-11-19T03:20:42;31.90;;;6.50;;
17598;SDS011;8918;52.092;5.232;2023-11-19T03:23:07;35.20;;;6.70;;
17598;SDS011;8918;52.092;5.232;2023-11-19T03:25:33;40.43;;;6.63;;
17598;SDS011;8918;52.092;5.232;2023-11-19T03:27:59;37.00;;;7.73;;
17598;SDS011;8918;52.092;5.232;2023-11-19T03:30:28;33.93;;;7.03;;
17598;SDS011;8918;52.092;5.232;2023-11-19T03:32:57;42.57;;;8.30;;
17598;SDS011;8918;52.092;5.232;2023-11-19T03:35:23;42.23;;;7.80;;
17598;SDS011;8918;52.092;5.232;2023-11-19T03:37:49;44.03;;;8.17;;
17598;SDS011;8918;52.092;5.232;2023-11-19T03:40:15;39.10;;;7.47;;
17598;SDS011;8918;52.092;5.232;2023-11-19T03:42:41;41.10;;;7.20;;
17598;SDS011;8918;52.092;5.232;2023-11-19T03:45:07;38.73;;;7.03;;
17598;SDS011;8918;52.092;5.232;2023-11-19T03:47:36;36.30;;;7.17;;
17598;SDS011;8918;52.092;5.232;2023-11-19T03:50:02;42.77;;;7.53;;
17598;SDS011;8918;52.092;5.232;2023-11-19T03:52:28;39.07;;;7.17;;
17598;SDS011;8918;52.092;5.232;2023-11-19T03:54:56;33.10;;;7.07;;
17598;SDS011;8918;52.092;5.232;2023-11-19T03:57:22;42.57;;;7.27;;
17598;SDS011;8918;52.092;5.232;2023-11-19T03:59:48;42.10;;;7.50;;
17598;SDS011;8918;52.092;5.232;2023-11-19T04:02:13;39.37;;;6.60;;
17598;SDS011;8918;52.092;5.232;2023-11-19T04:04:40;42.03;;;7.07;;
17598;SDS011;8918;52.092;5.232;2023-11-19T04:07:05;43.83;;;7.23;;
17598;SDS011;8918;52.092;5.232;2023-11-19T04:09:31;38.80;;;6.73;;
17598;SDS011;8918;52.092;5.232;2023-11-19T04:12:00;50.73;;;7.60;;
17598;SDS011;8918;52.092;5.232;2023-11-19T04:14:26;35.30;;;6.80;;
17598;SDS011;8918;52.092;5.232;2023-11-19T04:16:52;42.80;;;6.80;;
17598;SDS011;8918;52.092;5.232;2023-11-19T04:19:18;36.87;;;7.60;;
17598;SDS011;8918;52.092;5.232;2023-11-19T04:21:44;44.60;;;8.03;;
17598;SDS011;8918;52.092;5.232;2023-11-19T04:24:10;32.97;;;7.03;;
17598;SDS011;8918;52.092;5.232;2023-11-19T04:26:42;42.17;;;6.73;;
17598;SDS011;8918;52.092;5.232;2023-11-19T04:29:11;39.00;;;8.03;;
17598;SDS011;8918;52.092;5.232;2023-11-19T04:31:37;37.67;;;7.50;;
17598;SDS011;8918;52.092;5.232;2023-11-19T04:34:04;42.83;;;7.67;;
17598;SDS011;8918;52.092;5.232;2023-11-19T04:36:31;47.27;;;8.23;;
17598;SDS011;8918;52.092;5.232;2023-11-19T04:38:58;39.17;;;7.50;;
17598;SDS011;8918;52.092;5.232;2023-11-19T04:41:24;48.00;;;7.80;;
17598;SDS011;8918;52.092;5.232;2023-11-19T04:43:50;39.70;;;7.30;;
17598;SDS011;8918;52.092;5.232;2023-11-19T04:46:15;41.07;;;7.13;;
17598;SDS011;8918;52.092;5.232;2023-11-19T04:48:41;37.40;;;7.23;;
17598;SDS011;8918;52.092;5.232;2023-11-19T04:51:07;34.50;;;6.67;;
17598;SDS011;8918;52.092;5.232;2023-11-19T04:53:34;37.77;;;6.93;;
17598;SDS011;8918;52.092;5.232;2023-11-19T04:56:00;40.27;;;8.43;;
17598;SDS011;8918;52.092;5.232;2023-11-19T04:58:25;36.53;;;6.73;;
17598;SDS011;8918;52.092;5.232;2023-11-19T05:00:54;35.07;;;7.00;;
17598;SDS011;8918;52.092;5.232;2023-11-19T05:03:19;41.67;;;7.10;;
17598;SDS011;8918;52.092;5.232;2023-11-19T05:05:45;44.53;;;6.97;;
17598;SDS011;8918;52.092;5.232;2023-11-19T05:08:10;38.93;;;7.37;;
17598;SDS011;8918;52.092;5.232;2023-11-19T05:10:36;43.90;;;7.23;;
17598;SDS011;8918;52.092;5.232;2023-11-19T05:13:02;36.20;;;7.20;;
17598;SDS011;8918;52.092;5.232;2023-11-19T05:15:27;38.73;;;7.13;;
17598;SDS011;8918;52.092;5.232;2023-11-19T05:17:53;35.13;;;6.80;;
17598;SDS011;8918;52.092;5.232;2023-11-19T05:20:18;39.10;;;7.03;;
17598;SDS011;8918;52.092;5.232;2023-11-19T05:22:44;35.37;;;6.27;;
17598;SDS011;8918;52.092;5.232;2023-11-19T05:25:10;39.70;;;7.20;;
17598;SDS011;8918;52.092;5.232;2023-11-19T05:27:36;41.07;;;7.13;;
17598;SDS011;8918;52.092;5.232;2023-11-19T05:30:03;41.17;;;6.33;;
17598;SDS011;8918;52.092;5.232;2023-11-19T05:32:32;35.90;;;7.53;;
17598;SDS011;8918;52.092;5.232;2023-11-19T05:34:57;35.90;;;6.97;;
17598;SDS011;8918;52.092;5.232;2023-11-19T05:37:23;35.77;;;7.23;;
17598;SDS011;8918;52.092;5.232;2023-11-19T05:39:50;38.00;;;6.90;;
17598;SDS011;8918;52.092;5.232;2023-11-19T05:42:15;38.03;;;7.03;;
17598;SDS011;8918;52.092;5.232;2023-11-19T05:44:41;39.43;;;7.10;;
17598;SDS011;8918;52.092;5.232;2023-11-19T05:47:06;43.57;;;7.40;;
17598;SDS011;8918;52.092;5.232;2023-11-19T05:49:32;36.07;;;6.90;;
17598;SDS011;8918;52.092;5.232;2023-11-19T05:51:58;40.07;;;7.13;;
17598;SDS011;8918;52.092;5.232;2023-11-19T05:54:24;35.67;;;6.77;;
17598;SDS011;8918;52.092;5.232;2023-11-19T05:56:50;35.87;;;7.13;;
17598;SDS011;8918;52.092;5.232;2023-11-19T05:59:18;38.43;;;7.47;;
17598;SDS011;8918;52.092;5.232;2023-11-19T06:01:44;41.40;;;7.17;;
17598;SDS011;8918;52.092;5.232;2023-11-19T06:04:10;46.47;;;7.63;;
17598;SDS011;8918;52.092;5.232;2023-11-19T06:06:36;35.93;;;7.33;;
17598;SDS011;8918;52.092;5.232;2023-11-19T06:09:02;32.70;;;7.13;;
17598;SDS011;8918;52.092;5.232;2023-11-19T06:11:28;43.17;;;7.40;;
17598;SDS011;8918;52.092;5.232;2023-11-19T06:13:54;39.23;;;7.67;;
17598;SDS011;8918;52.092;5.232;2023-11-19T06:16:20;44.33;;;7.40;;
17598;SDS011;8918;52.092;5.232;2023-11-19T06:18:46;41.10;;;7.30;;
17598;SDS011;8918;52.092;5.232;2023-11-19T06:21:12;45.03;;;7.73;;
17598;SDS011;8918;52.092;5.232;2023-11-19T06:23:38;40.53;;;7.50;;
17598;SDS011;8918;52.092;5.232;2023-11-19T06:26:03;46.70;;;7.33;;
17598;SDS011;8918;52.092;5.232;2023-11-19T06:28:30;40.20;;;7.20;;
17598;SDS011;8918;52.092;5.232;2023-11-19T06:30:56;42.23;;;7.57;;
17598;SDS011;8918;52.092;5.232;2023-11-19T06:33:22;33.47;;;7.17;;
17598;SDS011;8918;52.092;5.232;2023-11-19T06:35:49;42.13;;;7.00;;
17598;SDS011;8918;52.092;5.232;2023-11-19T06:38:14;36.83;;;7.03;;
17598;SDS011;8918;52.092;5.232;2023-11-19T06:40:40;39.40;;;7.13;;
17598;SDS011;8918;52.092;5.232;2023-11-19T06:43:06;35.90;;;7.33;;
17598;SDS011;8918;52.092;5.232;2023-11-19T06:45:33;39.67;;;7.30;;
17598;SDS011;8918;52.092;5.232;2023-11-19T06:48:02;33.57;;;6.80;;
17598;SDS011;8918;52.092;5.232;2023-11-19T06:50:31;36.87;;;6.87;;
17598;SDS011;8918;52.092;5.232;2023-11-19T06:52:57;37.83;;;7.07;;
17598;SDS011;8918;52.092;5.232;2023-11-19T06:55:23;42.27;;;7.40;;
17598;SDS011;8918;52.092;5.232;2023-11-19T06:57:48;38.83;;;7.37;;
17598;SDS011;8918;52.092;5.232;2023-11-19T07:00:14;28.90;;;6.63;;
17598;SDS011;8918;52.092;5.232;2023-11-19T07:02:40;35.73;;;6.70;;
17598;SDS011;8918;52.092;5.232;2023-11-19T07:05:05;31.43;;;6.43;;
17598;SDS011;8918;52.092;5.232;2023-11-19T07:07:31;37.27;;;7.53;;
17598;SDS011;8918;52.092;5.232;2023-11-19T07:10:00;31.33;;;6.67;;
17598;SDS011;8918;52.092;5.232;2023-11-19T07:12:27;45.83;;;8.00;;
17598;SDS011;8918;52.092;5.232;2023-11-19T07:14:52;37.80;;;6.93;;
17598;SDS011;8918;52.092;5.232;2023-11-19T07:17:20;46.67;;;7.77;;
17598;SDS011;8918;52.092;5.232;2023-11-19T07:19:45;33.93;;;6.43;;
17598;SDS011;8918;52.092;5.232;2023-11-19T07:22:11;39.13;;;7.47;;
17598;SDS011;8918;52.092;5.232;2023-11-19T07:24:38;40.40;;;7.07;;
17598;SDS011;8918;52.092;5.232;2023-11-19T07:27:05;35.50;;;7.13;;
17598;SDS011;8918;52.092;5.232;2023-11-19T07:29:31;40.53;;;7.23;;
17598;SDS011;8918;52.092;5.232;2023-11-19T07:31:57;37.93;;;6.63;;
17598;SDS011;8918;52.092;5.232;2023-11-19T07:34:22;35.07;;;6.90;;
17598;SDS011;8918;52.092;5.232;2023-11-19T07:36:49;42.40;;;7.20;;
17598;SDS011;8918;52.092;5.232;2023-11-19T07:39:15;37.37;;;7.13;;
17598;SDS011;8918;52.092;5.232;2023-11-19T07:41:40;36.03;;;6.70;;
17598;SDS011;8918;52.092;5.232;2023-11-19T07:44:06;39.20;;;7.03;;
17598;SDS011;8918;52.092;5.232;2023-11-19T07:46:32;40.33;;;6.93;;
17598;SDS011;8918;52.092;5.232;2023-11-19T07:48:58;33.53;;;6.97;;
17598;SDS011;8918;52.092;5.232;2023-11-19T07:51:23;31.73;;;6.47;;
17598;SDS011;8918;52.092;5.232;2023-11-19T07:53:49;37.73;;;6.87;;
17598;SDS011;8918;52.092;5.232;2023-11-19T07:56:14;35.33;;;6.67;;
17598;SDS011;8918;52.092;5.232;2023-11-19T07:58:40;44.80;;;7.47;;
17598;SDS011;8918;52.092;5.232;2023-11-19T08:01:06;32.47;;;6.47;;
17598;SDS011;8918;52.092;5.232;2023-11-19T08:03:32;38.17;;;7.07;;
17598;SDS011;8918;52.092;5.232;2023-11-19T08:06:00;35.67;;;6.57;;
17598;SDS011;8918;52.092;5.232;2023-11-19T08:08:27;36.53;;;7.60;;
17598;SDS011;8918;52.092;5.232;2023-11-19T08:10:54;38.70;;;7.07;;
17598;SDS011;8918;52.092;5.232;2023-11-19T08:13:21;36.83;;;6.90;;
17598;SDS011;8918;52.092;5.232;2023-11-19T08:15:48;38.13;;;6.47;;
17598;SDS011;8918;52.092;5.232;2023-11-19T08:18:13;39.90;;;6.87;;
17598;SDS011;8918;52.092;5.232;2023-11-19T08:20:39;47.03;;;7.60;;
17598;SDS011;8918;52.092;5.232;2023-11-19T08:23:06;45.33;;;7.37;;
17598;SDS011;8918;52.092;5.232;2023-11-19T08:25:32;37.70;;;7.50;;
17598;SDS011;8918;52.092;5.232;2023-11-19T08:27:58;36.20;;;6.23;;
17598;SDS011;8918;52.092;5.232;2023-11-19T08:30:25;37.17;;;7.07;;
17598;SDS011;8918;52.092;5.232;2023-11-19T08:32:50;31.67;;;5.97;;
17598;SDS011;8918;52.092;5.232;2023-11-19T08:35:16;40.50;;;6.97;;
17598;SDS011;8918;52.092;5.232;2023-11-19T08:37:41;37.43;;;7.27;;
17598;SDS011;8918;52.092;5.232;2023-11-19T08:40:07;34.40;;;7.00;;
17598;SDS011;8918;52.092;5.232;2023-11-19T08:42:34;31.53;;;6.90;;
17598;SDS011;8918;52.092;5.232;2023-11-19T08:45:00;30.57;;;5.90;;
17598;SDS011;8918;52.092;5.232;2023-11-19T08:47:25;34.87;;;6.17;;
17598;SDS011;8918;52.092;5.232;2023-11-19T08:49:51;38.77;;;7.10;;
17598;SDS011;8918;52.092;5.232;2023-11-19T08:52:20;30.67;;;6.77;;
17598;SDS011;8918;52.092;5.232;2023-11-19T08:54:45;37.90;;;6.40;;
17598;SDS011;8918;52.092;5.232;2023-11-19T08:57:11;29.90;;;6.37;;
17598;SDS011;8918;52.092;5.232;2023-11-19T08:59:37;31.10;;;6.07;;
17598;SDS011;8918;52.092;5.232;2023-11-19T09:02:04;28.77;;;6.27;;
17598;SDS011;8918;52.092;5.232;2023-11-19T09:04:30;30.77;;;6.60;;
17598;SDS011;8918;52.092;5.232;2023-11-19T09:06:57;32.53;;;6.43;;
17598;SDS011;8918;52.092;5.232;2023-11-19T09:09:22;29.43;;;6.77;;
17598;SDS011;8918;52.092;5.232;2023-11-19T09:11:48;30.03;;;5.87;;
17598;SDS011;8918;52.092;5.232;2023-11-19T09:14:14;35.97;;;6.30;;
17598;SDS011;8918;52.092;5.232;2023-11-19T09:16:39;42.07;;;7.33;;
17598;SDS011;8918;52.092;5.232;2023-11-19T09:19:05;39.47;;;6.80;;
17598;SDS011;8918;52.092;5.232;2023-11-19T09:21:30;39.17;;;7.37;;
17598;SDS011;8918;52.092;5.232;2023-11-19T09:23:56;31.67;;;6.60;;
17598;SDS011;8918;52.092;5.232;2023-11-19T09:26:22;28.53;;;6.13;;
17598;SDS011;8918;52.092;5.232;2023-11-19T09:28:47;31.87;;;5.60;;
17598;SDS011;8918;52.092;5.232;2023-11-19T09:31:14;33.43;;;6.67;;
17598;SDS011;8918;52.092;5.232;2023-11-19T09:33:43;31.53;;;6.40;;
17598;SDS011;8918;52.092;5.232;2023-11-19T09:36:09;31.43;;;5.57;;
17598;SDS011;8918;52.092;5.232;2023-11-19T09:38:38;36.33;;;6.10;;
17598;SDS011;8918;52.092;5.232;2023-11-19T09:41:04;30.20;;;6.50;;
17598;SDS011;8918;52.092;5.232;2023-11-19T09:43:34;29.27;;;5.93;;
17598;SDS011;8918;52.092;5.232;2023-11-19T09:46:03;30.77;;;6.50;;
17598;SDS011;8918;52.092;5.232;2023-11-19T09:48:36;26.87;;;5.77;;
17598;SDS011;8918;52.092;5.232;2023-11-19T09:51:03;35.43;;;6.37;;
17598;SDS011;8918;52.092;5.232;2023-11-19T09:53:29;29.33;;;5.63;;
17598;SDS011;8918;52.092;5.232;2023-11-19T09:55:55;30.43;;;6.03;;
17598;SDS011;8918;52.092;5.232;2023-11-19T09:58:22;35.83;;;6.07;;
17598;SDS011;8918;52.092;5.232;2023-11-19T10:00:47;34.43;;;6.10;;
17598;SDS011;8918;52.092;5.232;2023-11-19T10:03:14;33.37;;;6.30;;
17598;SDS011;8918;52.092;5.232;2023-11-19T10:05:40;34.57;;;6.10;;
17598;SDS011;8918;52.092;5.232;2023-11-19T10:08:06;28.33;;;5.50;;
17598;SDS011;8918;52.092;5.232;2023-11-19T10:10:32;29.83;;;6.13;;
17598;SDS011;8918;52.092;5.232;2023-11-19T10:12:59;27.40;;;5.90;;
17598;SDS011;8918;52.092;5.232;2023-11-19T10:15:25;31.87;;;5.77;;
17598;SDS011;8918;52.092;5.232;2023-11-19T10:17:57;30.83;;;5.97;;
17598;SDS011;8918;52.092;5.232;2023-11-19T10:20:23;29.37;;;5.80;;
17598;SDS011;8918;52.092;5.232;2023-11-19T10:22:52;32.57;;;5.67;;
17598;SDS011;8918;52.092;5.232;2023-11-19T10:25:23;27.47;;;6.40;;
17598;SDS011;8918;52.092;5.232;2023-11-19T10:27:50;33.40;;;6.13;;
17598;SDS011;8918;52.092;5.232;2023-11-19T10:30:23;26.47;;;5.80;;
17598;SDS011;8918;52.092;5.232;2023-11-19T10:35:32;34.45;;;6.72;;
17598;SDS011;8918;52.092;5.232;2023-11-19T10:37:59;30.17;;;5.75;;
17598;SDS011;8918;52.092;5.232;2023-11-19T10:40:37;31.73;;;6.43;;
17598;SDS011;8918;52.092;5.232;2023-11-19T10:43:04;31.63;;;5.80;;
17598;SDS011;8918;52.092;5.232;2023-11-19T10:45:32;29.58;;;5.65;;
17598;SDS011;8918;52.092;5.232;2023-11-19T10:47:58;28.38;;;6.15;;
17598;SDS011;8918;52.092;5.232;2023-11-19T10:50:24;31.33;;;6.25;;
17598;SDS011;8918;52.092;5.232;2023-11-19T10:52:52;25.25;;;6.05;;
17598;SDS011;8918;52.092;5.232;2023-11-19T10:55:25;24.30;;;5.60;;
17598;SDS011;8918;52.092;5.232;2023-11-19T10:57:52;29.70;;;6.28;;
17598;SDS011;8918;52.092;5.232;2023-11-19T11:00:23;30.48;;;5.55;;
17598;SDS011;8918;52.092;5.232;2023-11-19T11:02:50;25.98;;;5.72;;
17598;SDS011;8918;52.092;5.232;2023-11-19T11:05:21;27.63;;;6.03;;
17598;SDS011;8918;52.092;5.232;2023-11-19T11:07:47;31.83;;;6.28;;
17598;SDS011;8918;52.092;5.232;2023-11-19T11:10:16;24.92;;;5.22;;
17598;SDS011;8918;52.092;5.232;2023-11-19T11:12:43;23.48;;;5.35;;
17598;SDS011;8918;52.092;5.232;2023-11-19T11:15:11;24.73;;;5.35;;
17598;SDS011;8918;52.092;5.232;2023-11-19T11:17:40;29.58;;;5.70;;
17598;SDS011;8918;52.092;5.232;2023-11-19T11:20:08;21.73;;;5.65;;
17598;SDS011;8918;52.092;5.232;2023-11-19T11:25:52;26.63;;;5.60;;
17598;SDS011;8918;52.092;5.232;2023-11-19T11:29:16;24.95;;;5.35;;
17598;SDS011;8918;52.092;5.232;2023-11-19T11:39:24;29.48;;;6.05;;
17598;SDS011;8918;52.092;5.232;2023-11-19T11:48:00;27.23;;;5.95;;
17598;SDS011;8918;52.092;5.232;2023-11-19T11:50:21;26.45;;;5.57;;
17598;SDS011;8918;52.092;5.232;2023-11-19T11:58:02;28.05;;;6.82;;
17598;SDS011;8918;52.092;5.232;2023-11-19T12:02:59;29.05;;;7.82;;
17598;SDS011;8918;52.092;5.232;2023-11-19T12:05:26;25.85;;;6.72;;
17598;SDS011;8918;52.092;5.232;2023-11-19T12:07:56;26.40;;;6.53;;
17598;SDS011;8918;52.092;5.232;2023-11-19T12:10:25;26.08;;;5.93;;
17598;SDS011;8918;52.092;5.232;2023-11-19T12:12:56;25.63;;;5.40;;
17598;SDS011;8918;52.092;5.232;2023-11-19T12:15:23;27.05;;;5.00;;
17598;SDS011;8918;52.092;5.232;2023-11-19T12:17:51;22.48;;;5.07;;
17598;SDS011;8918;52.092;5.232;2023-11-19T12:20:18;22.20;;;4.82;;
17598;SDS011;8918;52.092;5.232;2023-11-19T12:22:45;22.58;;;4.72;;
17598;SDS011;8918;52.092;5.232;2023-11-19T12:25:14;22.60;;;4.82;;
17598;SDS011;8918;52.092;5.232;2023-11-19T12:27:41;19.33;;;4.60;;
17598;SDS011;8918;52.092;5.232;2023-11-19T12:30:09;22.65;;;4.82;;
17598;SDS011;8918;52.092;5.232;2023-11-19T12:32:39;23.70;;;5.00;;
17598;SDS011;8918;52.092;5.232;2023-11-19T12:35:05;20.70;;;4.90;;
17598;SDS011;8918;52.092;5.232;2023-11-19T12:37:38;21.48;;;4.18;;
17598;SDS011;8918;52.092;5.232;2023-11-19T12:40:14;19.75;;;4.55;;
17598;SDS011;8918;52.092;5.232;2023-11-19T12:42:51;26.73;;;5.50;;
17598;SDS011;8918;52.092;5.232;2023-11-19T12:45:20;20.38;;;4.88;;
17598;SDS011;8918;52.092;5.232;2023-11-19T12:47:48;24.25;;;4.80;;
17598;SDS011;8918;52.092;5.232;2023-11-19T12:50:15;28.92;;;5.97;;
17598;SDS011;8918;52.092;5.232;2023-11-19T12:52:43;28.13;;;5.07;;
17598;SDS011;8918;52.092;5.232;2023-11-19T12:55:28;28.98;;;5.15;;
17598;SDS011;8918;52.092;5.232;2023-11-19T12:57:54;22.48;;;5.07;;
17598;SDS011;8918;52.092;5.232;2023-11-19T13:00:24;24.08;;;5.32;;
17598;SDS011;8918;52.092;5.232;2023-11-19T13:02:51;26.83;;;6.00;;
17598;SDS011;8918;52.092;5.232;2023-11-19T13:05:22;26.70;;;5.80;;
17598;SDS011;8918;52.092;5.232;2023-11-19T13:08:06;32.73;;;6.47;;
17598;SDS011;8918;52.092;5.232;2023-11-19T13:10:34;31.03;;;5.77;;
17598;SDS011;8918;52.092;5.232;2023-11-19T13:13:16;29.37;;;6.20;;
17598;SDS011;8918;52.092;5.232;2023-11-19T13:15:41;23.90;;;5.30;;
17598;SDS011;8918;52.092;5.232;2023-11-19T13:18:10;26.27;;;5.23;;
17598;SDS011;8918;52.092;5.232;2023-11-19T13:20:35;28.07;;;5.77;;
17598;SDS011;8918;52.092;5.232;2023-11-19T13:23:02;28.70;;;6.00;;
17598;SDS011;8918;52.092;5.232;2023-11-19T13:25:29;31.03;;;5.73;;
17598;SDS011;8918;52.092;5.232;2023-11-19T13:27:55;23.67;;;4.73;;
17598;SDS011;8918;52.092;5.232;2023-11-19T13:30:22;28.40;;;5.53;;
17598;SDS011;8918;52.092;5.232;2023-11-19T13:32:48;35.83;;;6.70;;
17598;SDS011;8918;52.092;5.232;2023-11-19T13:35:15;32.20;;;5.37;;
17598;SDS011;8918;52.092;5.232;2023-11-19T13:37:42;28.47;;;5.83;;
17598;SDS011;8918;52.092;5.232;2023-11-19T13:40:08;32.88;;;6.18;;
17598;SDS011;8918;52.092;5.232;2023-11-19T13:42:39;29.95;;;5.45;;
17598;SDS011;8918;52.092;5.232;2023-11-19T13:45:09;31.57;;;6.27;;
17598;SDS011;8918;52.092;5.232;2023-11-19T13:47:36;28.13;;;5.50;;
17598;SDS011;8918;52.092;5.232;2023-11-19T13:50:12;25.63;;;5.20;;
17598;SDS011;8918;52.092;5.232;2023-11-19T13:52:39;26.83;;;5.17;;
17598;SDS011;8918;52.092;5.232;2023-11-19T13:55:07;24.17;;;5.10;;
17598;SDS011;8918;52.092;5.232;2023-11-19T13:57:36;22.50;;;4.82;;
17598;SDS011;8918;52.092;5.232;2023-11-19T14:00:03;24.67;;;5.20;;
17598;SDS011;8918;52.092;5.232;2023-11-19T14:02:31;23.75;;;4.82;;
17598;SDS011;8918;52.092;5.232;2023-11-19T14:04:57;26.30;;;4.60;;
17598;SDS011;8918;52.092;5.232;2023-11-19T14:07:22;28.52;;;5.55;;
17598;SDS011;8918;52.092;5.232;2023-11-19T14:09:48;27.42;;;5.25;;
17598;SDS011;8918;52.092;5.232;2023-11-19T14:12:15;27.37;;;4.60;;
17598;SDS011;8918;52.092;5.232;2023-11-19T14:14:40;24.77;;;4.63;;
17598;SDS011;8918;52.092;5.232;2023-11-19T14:17:07;26.53;;;5.30;;
17598;SDS011;8918;52.092;5.232;2023-11-19T14:19:32;24.83;;;5.10;;
17598;SDS011;8918;52.092;5.232;2023-11-19T14:21:58;22.00;;;5.57;;
17598;SDS011;8918;52.092;5.232;2023-11-19T14:24:25;25.47;;;5.03;;
17598;SDS011;8918;52.092;5.232;2023-11-19T14:26:51;26.10;;;5.43;;
17598;SDS011;8918;52.092;5.232;2023-11-19T14:29:16;25.60;;;6.27;;
17598;SDS011;8918;52.092;5.232;2023-11-19T14:31:42;24.97;;;5.37;;
17598;SDS011;8918;52.092;5.232;2023-11-19T14:34:08;25.83;;;6.00;;
17598;SDS011;8918;52.092;5.232;2023-11-19T14:36:33;25.10;;;4.80;;
17598;SDS011;8918;52.092;5.232;2023-11-19T14:38:59;25.20;;;5.40;;
17598;SDS011;8918;52.092;5.232;2023-11-19T14:41:25;27.27;;;5.60;;
17598;SDS011;8918;52.092;5.232;2023-11-19T14:43:51;28.10;;;5.67;;
17598;SDS011;8918;52.092;5.232;2023-11-19T14:46:17;28.33;;;6.17;;
17598;SDS011;8918;52.092;5.232;2023-11-19T14:48:43;24.43;;;5.37;;
17598;SDS011;8918;52.092;5.232;2023-11-19T14:51:08;30.53;;;5.47;;
17598;SDS011;8918;52.092;5.232;2023-11-19T14:53:34;25.53;;;5.40;;
17598;SDS011;8918;52.092;5.232;2023-11-19T14:55:59;25.93;;;5.63;;
17598;SDS011;8918;52.092;5.232;2023-11-19T14:58:25;29.97;;;5.90;;
17598;SDS011;8918;52.092;5.232;2023-11-19T15:00:51;29.00;;;5.57;;
17598;SDS011;8918;52.092;5.232;2023-11-19T15:03:17;34.50;;;6.17;;
17598;SDS011;8918;52.092;5.232;2023-11-19T15:05:47;27.47;;;5.40;;
17598;SDS011;8918;52.092;5.232;2023-11-19T15:08:12;25.23;;;5.33;;
17598;SDS011;8918;52.092;5.232;2023-11-19T15:10:41;20.10;;;5.20;;
17598;SDS011;8918;52.092;5.232;2023-11-19T15:13:07;30.67;;;5.73;;
17598;SDS011;8918;52.092;5.232;2023-11-19T15:15:33;21.80;;;6.33;;